Observations for NORWICH WEA CNTRE, United Kingdom (EGSH)

EGSH 260520Z 06002KT 3200 BR MIFG NSC 13/13 Q1019 NOSIG 
EGSH 260450Z 00000KT 3200 BR MIFG NSC 13/12 Q1019 NOSIG 
EGSH 260420Z AUTO 35001KT 4200 HZ NCD 14/13 Q1019   
EGSH 260350Z AUTO 00000KT 4300 HZ NCD 13/12 Q1019   
EGSH 260320Z AUTO 29002KT 3600 HZ NCD 14/13 Q1019   
EGSH 260250Z AUTO 15002KT 5000 HZ NCD 15/14 Q1019   
EGSH 260220Z AUTO 15001KT 5000 HZ NCD 15/14 Q1019   
EGSH 260150Z AUTO 07001KT 6000 NCD 15/13 Q1019  
EGSH 260120Z AUTO 00000KT 5000 HZ NCD 16/14 Q1019   
EGSH 260050Z AUTO 07002KT 7000 NCD 15/13 Q1019  
EGSH 260020Z AUTO VRB02KT 8000 NCD 16/14 Q1020  
EGSH 252350Z AUTO 14001KT 8000 NCD 17/14 Q1020  
EGSH 252320Z AUTO 00000KT 9999 NCD 18/14 Q1020  
EGSH 252250Z AUTO VRB01KT 9999 NCD 18/14 Q1020  
EGSH 252220Z AUTO VRB01KT 9999 NCD 18/14 Q1020  
EGSH 252150Z AUTO VRB01KT 9999 NCD 19/14 Q1020  
EGSH 252120Z VRB03KT CAVOK 19/13 Q1020 NOSIG
EGSH 252050Z 13005KT CAVOK 19/13 Q1020 NOSIG
EGSH 252020Z 10004KT CAVOK 19/14 Q1020 NOSIG
EGSH 251950Z 10005KT CAVOK 19/13 Q1020 NOSIG
EGSH 251920Z 09006KT CAVOK 19/13 Q1020 NOSIG
EGSH 251850Z 11006KT CAVOK 23/12 Q1019 NOSIG
EGSH 251820Z 12008KT CAVOK 25/12 Q1019 NOSIG
EGSH 251750Z 11009KT CAVOK 26/11 Q1019 NOSIG
EGSH 251720Z 12010KT CAVOK 27/11 Q1019 NOSIG
EGSH 251650Z 12010KT 080V150 CAVOK 28/12 Q1018 NOSIG
EGSH 251620Z 12010KT CAVOK 29/12 Q1018 NOSIG
EGSH 251550Z 12010KT 080V150 CAVOK 29/12 Q1018 NOSIG
EGSH 251520Z 12010KT 090V160 CAVOK 30/12 Q1018 NOSIG
EGSH 251450Z 13009KT 100V160 CAVOK 30/11 Q1018 NOSIG
EGSH 251420Z 12006KT 090V180 CAVOK 31/11 Q1018 NOSIG
EGSH 251350Z VRB07KT CAVOK 31/11 Q1018 NOSIG
EGSH 251320Z 10008KT 070V160 CAVOK 31/11 Q1018 NOSIG
EGSH 251250Z 14006KT 080V200 CAVOK 30/11 Q1018 NOSIG
EGSH 251220Z 13006KT 090V240 CAVOK 30/12 Q1019 NOSIG
EGSH 251150Z 11007KT 080V160 CAVOK 29/11 Q1019 NOSIG
EGSH 251120Z 13007KT 070V190 CAVOK 29/12 Q1019 NOSIG
EGSH 251050Z 10006KT 040V140 CAVOK 29/13 Q1019 NOSIG
EGSH 251020Z 12005KT 090V180 CAVOK 28/13 Q1019 NOSIG
EGSH 250950Z VRB02KT CAVOK 27/14 Q1019 NOSIG
EGSH 250920Z VRB03KT CAVOK 25/15 Q1019 NOSIG
EGSH 250850Z VRB02KT 8000 NSC 25/16 Q1019 BECMG 9999
EGSH 250820Z VRB03KT 5000 HZ NSC 24/17 Q1019 BECMG 9999 NSW 
EGSH 250750Z VRB02KT 5000 HZ NSC 21/17 Q1019 BECMG 9999 NSW 
EGSH 250720Z VRB02KT 3000 BR NSC 19/17 Q1019 BECMG 9999 NSW 
EGSH 250650Z 00000KT 2000 BR NSC 16/15 Q1019 BECMG 9999 NSW 
EGSH 250620Z 00000KT 2000 BR NSC 14/14 Q1018 TEMPO 1200 
EGSH 250550Z 04002KT 1300 R27/P1500 BR NSC 14/13 Q1018 TEMPO 0600 FG
EGSH 250520Z 04002KT 1200 R27/P1500 BR MIFG NSC 13/12 Q1018 TEMPO 0600 FG   
EGSH 250450Z 04002KT 1100 MIFG NSC 12/11 Q1018 TEMPO 0600 FG